Terminal Aerodrome Forecast
Issued by NWS

Home | Current Version | Previous Version | Text Only | Print | Product List | Glossary On
Versions: 1 2 3 4 5 6 7 8 9 10 11 12 13 14 15 16 17
000
FTUS42 KRAH 211120
TAFINT
TAF
KINT 211120Z 2112/2212 24005KT P6SM SCT060 BKN250
     FM211800 25005KT P6SM SCT050 BKN250 PROB30 2121/2201 5SM -TSRA
      BR BKN050CB=

USA.gov is the U.S. government's official web portal to all federal, state and local government web resources and services.